createdAt,value
2022-11-11T00:01:17.640Z,35.90
2022-11-11T00:03:44.681Z,37.10
2022-11-11T00:06:15.511Z,36.67
2022-11-11T00:08:43.116Z,31.90
2022-11-11T00:11:13.268Z,38.07
2022-11-11T00:13:41.739Z,35.00
2022-11-11T00:16:20.359Z,34.57
2022-11-11T00:19:06.062Z,35.87
2022-11-11T00:21:39.057Z,39.90
2022-11-11T00:24:47.639Z,45.57
2022-11-11T00:27:16.738Z,41.77
2022-11-11T00:29:47.453Z,39.40
2022-11-11T00:32:23.823Z,41.57
2022-11-11T00:35:11.634Z,47.40
2022-11-11T00:37:40.954Z,47.53
2022-11-11T00:40:09.689Z,48.37
2022-11-11T00:42:36.905Z,47.20
2022-11-11T00:45:04.624Z,42.77
2022-11-11T00:47:50.044Z,46.37
2022-11-11T00:50:47.796Z,49.40
2022-11-11T00:53:25.070Z,44.73
2022-11-11T00:55:54.353Z,49.67
2022-11-11T00:58:23.323Z,53.97
2022-11-11T01:00:53.766Z,46.57
2022-11-11T01:03:22.465Z,50.83
2022-11-11T01:05:49.775Z,50.43
2022-11-11T01:08:16.944Z,47.73
2022-11-11T01:10:44.775Z,45.90
2022-11-11T01:13:29.855Z,43.80
2022-11-11T01:16:07.327Z,43.70
2022-11-11T01:18:34.548Z,44.93
2022-11-11T01:21:10.414Z,39.17
2022-11-11T01:23:40.747Z,42.80
2022-11-11T01:26:30.298Z,38.87
2022-11-11T01:28:58.014Z,43.80
2022-11-11T01:31:27.421Z,44.33
2022-11-11T01:33:54.845Z,47.70
2022-11-11T01:36:26.030Z,50.73
2022-11-11T01:38:56.662Z,45.67
2022-11-11T01:41:34.153Z,46.30
2022-11-11T01:44:13.867Z,45.07
2022-11-11T01:46:53.347Z,44.37
2022-11-11T01:49:39.550Z,44.40
2022-11-11T01:52:24.928Z,43.80
2022-11-11T01:55:04.089Z,48.27
2022-11-11T01:57:40.262Z,39.73
2022-11-11T02:00:11.885Z,43.87
2022-11-11T02:02:52.661Z,43.93
2022-11-11T02:05:40.929Z,39.97
2022-11-11T02:08:34.443Z,43.00
2022-11-11T02:11:13.925Z,43.17
2022-11-11T02:14:02.113Z,47.50
2022-11-11T02:16:29.591Z,50.87
2022-11-11T02:18:57.000Z,38.80
2022-11-11T02:21:38.248Z,45.43
2022-11-11T02:24:12.402Z,40.80
2022-11-11T02:26:40.375Z,43.93
2022-11-11T02:29:17.566Z,45.30
2022-11-11T02:31:44.715Z,45.47
2022-11-11T02:34:11.689Z,41.40
2022-11-11T02:36:39.980Z,39.00
2022-11-11T02:39:07.035Z,42.27
2022-11-11T02:41:52.496Z,43.67
2022-11-11T02:44:19.538Z,45.80
2022-11-11T02:46:46.716Z,42.17
2022-11-11T02:49:13.721Z,42.30
2022-11-11T02:51:40.705Z,39.50
2022-11-11T02:54:07.909Z,46.10
2022-11-11T02:56:53.167Z,42.03
2022-11-11T02:59:22.307Z,41.73
2022-11-11T03:01:49.357Z,46.00
2022-11-11T03:04:16.626Z,40.37
2022-11-11T03:06:43.845Z,36.50
2022-11-11T03:09:10.911Z,43.60
2022-11-11T03:11:38.588Z,42.97
2022-11-11T03:14:05.707Z,37.87
2022-11-11T03:16:51.143Z,39.10
2022-11-11T03:19:18.254Z,46.23
2022-11-11T03:24:50.682Z,40.13
2022-11-11T03:27:17.603Z,46.97
2022-11-11T03:29:44.554Z,41.73
2022-11-11T03:32:11.634Z,44.23
2022-11-11T03:34:38.865Z,44.30
2022-11-11T03:37:27.883Z,40.53
2022-11-11T03:39:54.976Z,41.93
2022-11-11T03:42:22.051Z,40.73
2022-11-11T03:44:48.917Z,48.10
2022-11-11T03:47:16.408Z,43.53
2022-11-11T03:49:45.849Z,43.03
2022-11-11T03:52:14.007Z,41.67
2022-11-11T03:54:40.994Z,41.33
2022-11-11T03:57:26.228Z,39.90
2022-11-11T03:59:53.151Z,40.43
2022-11-11T04:02:38.997Z,38.73
2022-11-11T04:05:25.149Z,38.43
2022-11-11T04:08:10.697Z,37.00
2022-11-11T04:10:37.970Z,39.30
2022-11-11T04:13:24.600Z,38.53
2022-11-11T04:16:06.526Z,39.53
2022-11-11T04:18:55.846Z,32.63
2022-11-11T04:21:43.051Z,31.93
2022-11-11T04:24:29.717Z,37.43
2022-11-11T04:26:59.504Z,32.10
2022-11-11T04:29:29.859Z,34.57
2022-11-11T04:32:20.815Z,42.27
2022-11-11T04:34:54.007Z,32.70
2022-11-11T04:37:22.368Z,38.50
2022-11-11T04:40:08.657Z,33.07
2022-11-11T04:42:35.916Z,34.20
2022-11-11T04:45:22.594Z,35.40
2022-11-11T04:48:10.854Z,34.77
2022-11-11T04:50:43.200Z,34.20
2022-11-11T04:53:15.218Z,35.20
2022-11-11T04:56:03.097Z,34.07
2022-11-11T04:58:35.722Z,32.33
2022-11-11T05:01:03.108Z,30.23
2022-11-11T05:03:30.054Z,29.43
2022-11-11T05:06:19.725Z,35.90
2022-11-11T05:08:59.279Z,36.80
2022-11-11T05:11:30.653Z,30.00
2022-11-11T05:14:18.505Z,35.77
2022-11-11T05:17:17.899Z,37.37
2022-11-11T05:20:02.893Z,34.00
2022-11-11T05:22:33.529Z,36.80
2022-11-11T05:25:18.699Z,29.43
2022-11-11T05:27:45.937Z,31.60
2022-11-11T05:30:15.795Z,29.07
2022-11-11T05:32:43.521Z,32.73
2022-11-11T05:35:12.471Z,30.47
2022-11-11T05:37:39.773Z,30.60
2022-11-11T05:40:08.756Z,35.63
2022-11-11T05:42:37.267Z,36.07
2022-11-11T05:45:07.890Z,32.93
2022-11-11T05:47:35.411Z,28.77
2022-11-11T05:50:02.330Z,34.47
2022-11-11T05:52:29.240Z,28.47
2022-11-11T05:54:56.179Z,27.13
2022-11-11T05:57:23.131Z,28.37
2022-11-11T05:59:50.267Z,25.97
2022-11-11T06:02:17.270Z,30.27
2022-11-11T06:04:44.246Z,27.33
2022-11-11T06:07:11.155Z,24.63
2022-11-11T06:09:38.077Z,21.63
2022-11-11T06:12:05.206Z,21.83
2022-11-11T06:14:32.115Z,25.53
2022-11-11T06:16:59.085Z,24.70
2022-11-11T06:19:25.971Z,26.03
2022-11-11T06:21:58.638Z,27.80
2022-11-11T06:24:26.819Z,23.20
2022-11-11T06:26:55.653Z,28.83
2022-11-11T06:29:23.339Z,25.03
2022-11-11T06:31:51.072Z,24.90
2022-11-11T06:34:17.967Z,26.27
2022-11-11T06:36:45.163Z,28.10
2022-11-11T06:39:12.075Z,26.07
2022-11-11T06:41:38.924Z,27.60
2022-11-11T06:44:05.826Z,30.77
2022-11-11T06:46:32.727Z,30.73
2022-11-11T06:48:59.684Z,32.60
2022-11-11T06:51:26.624Z,32.10
2022-11-11T06:53:53.548Z,32.67
2022-11-11T06:56:20.465Z,34.33
2022-11-11T06:58:47.477Z,36.87
2022-11-11T07:01:14.587Z,33.80
2022-11-11T07:03:41.546Z,35.87
2022-11-11T07:06:08.514Z,36.43
2022-11-11T07:08:35.495Z,29.17
2022-11-11T07:11:11.237Z,34.27
2022-11-11T07:13:41.168Z,38.70
2022-11-11T07:16:08.720Z,35.70
2022-11-11T07:18:35.586Z,29.00
2022-11-11T07:21:02.526Z,26.00
2022-11-11T07:23:29.433Z,28.63
2022-11-11T07:25:56.509Z,28.63
2022-11-11T07:28:23.878Z,30.17
2022-11-11T07:30:51.024Z,30.60
2022-11-11T07:33:23.129Z,30.57
2022-11-11T07:35:51.355Z,30.90
2022-11-11T07:38:18.272Z,25.13
2022-11-11T07:40:45.152Z,31.13
2022-11-11T07:43:12.036Z,24.90
2022-11-11T07:45:39.189Z,25.37
2022-11-11T07:48:06.282Z,26.20
2022-11-11T07:50:33.236Z,28.50
2022-11-11T07:53:00.159Z,27.90
2022-11-11T07:55:27.075Z,26.97
2022-11-11T07:57:54.169Z,30.10
2022-11-11T08:00:21.216Z,26.07
2022-11-11T08:02:55.114Z,27.47
2022-11-11T08:05:24.881Z,24.73
2022-11-11T08:07:51.825Z,22.67
2022-11-11T08:10:18.768Z,24.90
2022-11-11T08:13:04.718Z,26.80
2022-11-11T08:15:31.648Z,24.90
2022-11-11T08:17:58.535Z,27.73
2022-11-11T08:20:25.874Z,21.50
2022-11-11T08:23:24.659Z,24.53
2022-11-11T08:25:42.953Z,24.33
2022-11-11T08:28:16.277Z,21.50
2022-11-11T08:30:43.233Z,26.73
2022-11-11T08:33:32.433Z,20.87
2022-11-11T08:36:00.349Z,19.77
2022-11-11T08:38:27.995Z,21.50
2022-11-11T08:40:55.188Z,20.93
2022-11-11T08:43:23.551Z,22.60
2022-11-11T08:45:53.996Z,14.87
2022-11-11T08:48:21.430Z,20.87
2022-11-11T08:50:49.580Z,18.27
2022-11-11T08:53:16.863Z,19.50
2022-11-11T08:55:43.787Z,17.33
2022-11-11T08:58:12.443Z,18.57
2022-11-11T09:00:42.512Z,18.13
2022-11-11T09:03:12.349Z,16.20
2022-11-11T09:05:40.630Z,13.10
2022-11-11T09:08:08.691Z,13.77
2022-11-11T09:10:37.274Z,14.87
2022-11-11T09:13:05.777Z,16.57
2022-11-11T09:15:33.660Z,13.00
2022-11-11T09:18:01.704Z,11.67
2022-11-11T09:20:29.472Z,14.17
2022-11-11T09:22:56.785Z,14.47
2022-11-11T09:25:23.926Z,11.57
2022-11-11T09:28:01.167Z,13.93
2022-11-11T09:30:29.362Z,11.17
2022-11-11T09:33:02.927Z,11.77
2022-11-11T09:35:30.089Z,12.27
2022-11-11T09:37:59.725Z,10.13
2022-11-11T09:40:44.845Z,12.73
2022-11-11T09:43:23.958Z,8.13
2022-11-11T09:46:21.218Z,11.13
2022-11-11T09:49:33.336Z,17.60
2022-11-11T09:52:21.273Z,14.20
2022-11-11T09:55:33.979Z,11.27
2022-11-11T09:58:08.945Z,14.43
2022-11-11T10:00:38.070Z,11.67
2022-11-11T10:03:10.922Z,9.77
2022-11-11T10:06:01.228Z,11.07
2022-11-11T10:09:02.419Z,10.63
2022-11-11T10:11:35.034Z,9.17
2022-11-11T10:14:02.643Z,10.73
2022-11-11T10:17:04.840Z,9.80
2022-11-11T10:19:57.315Z,8.23
2022-11-11T10:22:34.994Z,11.33
2022-11-11T10:25:13.872Z,9.20
2022-11-11T10:27:47.417Z,10.70
2022-11-11T10:30:28.677Z,11.73
2022-11-11T10:33:03.744Z,12.03
2022-11-11T10:35:33.631Z,11.90
2022-11-11T10:38:07.007Z,12.43
2022-11-11T10:40:53.576Z,12.80
2022-11-11T10:43:24.807Z,11.47
2022-11-11T10:46:14.262Z,12.23
2022-11-11T10:49:01.261Z,9.77
2022-11-11T10:51:33.138Z,11.90
2022-11-11T10:54:03.123Z,9.00
2022-11-11T10:56:46.130Z,11.83
2022-11-11T10:59:21.727Z,15.93
2022-11-11T11:02:28.327Z,12.97
2022-11-11T11:05:05.706Z,10.30
2022-11-11T11:07:56.903Z,9.63
2022-11-11T11:10:37.877Z,11.20
2022-11-11T11:13:08.165Z,11.57
2022-11-11T11:15:40.574Z,8.30
2022-11-11T11:18:17.254Z,13.27
2022-11-11T11:21:08.051Z,11.10
2022-11-11T11:23:46.317Z,10.60
2022-11-11T11:26:14.901Z,9.00
2022-11-11T11:29:01.780Z,9.70
2022-11-11T11:31:41.004Z,9.27
2022-11-11T11:34:08.735Z,12.10
2022-11-11T11:36:35.706Z,10.23
2022-11-11T11:39:02.655Z,10.77
2022-11-11T11:41:44.885Z,11.80
2022-11-11T11:44:33.194Z,8.80
2022-11-11T11:48:24.101Z,8.00
2022-11-11T11:50:56.561Z,8.83
2022-11-11T11:53:57.038Z,7.87
2022-11-11T11:56:37.940Z,12.23
2022-11-11T11:59:23.908Z,8.20
2022-11-11T12:02:30.958Z,9.60
2022-11-11T12:05:30.830Z,9.10
2022-11-11T12:08:22.784Z,8.77
2022-11-11T12:10:55.167Z,7.53
2022-11-11T12:14:05.747Z,8.50
2022-11-11T12:16:46.257Z,8.90
2022-11-11T12:20:07.525Z,7.80
2022-11-11T12:23:01.687Z,7.37
2022-11-11T12:26:10.015Z,7.53
2022-11-11T12:29:01.520Z,9.13
2022-11-11T12:31:40.475Z,9.97
2022-11-11T12:34:33.593Z,9.07
2022-11-11T12:37:55.905Z,7.00
2022-11-11T12:41:02.907Z,9.77
2022-11-11T12:43:57.727Z,7.77
2022-11-11T12:47:07.418Z,7.70
2022-11-11T12:50:28.517Z,9.03
2022-11-11T12:53:31.249Z,9.00
2022-11-11T12:56:46.835Z,11.17
2022-11-11T12:59:30.388Z,11.13
2022-11-11T13:02:46.961Z,10.30
2022-11-11T13:05:33.985Z,7.40
2022-11-11T13:08:51.279Z,10.73
2022-11-11T13:11:43.990Z,13.50
2022-11-11T13:15:25.185Z,13.10
2022-11-11T13:17:52.763Z,11.20
2022-11-11T13:20:57.881Z,13.13
2022-11-11T13:23:25.579Z,9.27
2022-11-11T13:26:03.280Z,11.50
2022-11-11T13:28:44.995Z,14.23
2022-11-11T13:31:35.352Z,14.17
2022-11-11T13:34:12.028Z,13.67
2022-11-11T13:36:50.279Z,14.37
2022-11-11T13:39:40.115Z,13.33
2022-11-11T13:42:10.193Z,15.50
2022-11-11T13:44:51.535Z,13.67
2022-11-11T13:47:24.531Z,12.10
2022-11-11T13:49:58.935Z,14.97
2022-11-11T13:52:34.138Z,13.53
2022-11-11T13:55:26.451Z,13.87
2022-11-11T13:57:53.941Z,12.43
2022-11-11T14:00:29.048Z,12.93
2022-11-11T14:03:19.982Z,12.63
2022-11-11T14:05:47.092Z,13.63
2022-11-11T14:08:46.465Z,10.97
2022-11-11T14:11:25.553Z,12.03
2022-11-11T14:13:55.013Z,13.73
2022-11-11T14:16:36.931Z,12.57
2022-11-11T14:19:18.482Z,15.50
2022-11-11T14:22:02.023Z,13.77
2022-11-11T14:24:44.920Z,13.87
2022-11-11T14:27:11.688Z,14.07
2022-11-11T14:29:49.150Z,15.73
2022-11-11T14:32:48.975Z,10.30
2022-11-11T14:35:39.780Z,12.30
2022-11-11T14:38:30.692Z,10.90
2022-11-11T14:40:57.622Z,12.17
2022-11-11T14:43:38.102Z,11.37
2022-11-11T14:46:18.843Z,13.93
2022-11-11T14:48:53.057Z,12.57
2022-11-11T14:51:44.047Z,14.53
2022-11-11T14:54:54.745Z,14.70
2022-11-11T14:57:45.509Z,11.27
2022-11-11T15:00:19.041Z,14.57
2022-11-11T15:03:02.425Z,10.53
2022-11-11T15:05:53.413Z,14.07
2022-11-11T15:08:26.068Z,9.90
2022-11-11T15:11:34.012Z,12.13
2022-11-11T15:14:19.490Z,13.23
2022-11-11T15:17:27.108Z,13.70
2022-11-11T15:20:06.035Z,13.90
2022-11-11T15:22:40.389Z,13.57
2022-11-11T15:25:44.324Z,14.80
2022-11-11T15:28:48.758Z,20.67
2022-11-11T15:31:42.750Z,16.30
2022-11-11T15:34:28.222Z,20.10
2022-11-11T15:37:06.476Z,21.63
2022-11-11T15:39:47.485Z,18.00
2022-11-11T15:42:28.585Z,19.53
2022-11-11T15:44:56.553Z,16.97
2022-11-11T15:47:24.738Z,18.73
2022-11-11T15:49:52.186Z,19.50
2022-11-11T15:52:32.201Z,19.80
2022-11-11T15:55:01.423Z,22.80
2022-11-11T15:57:35.526Z,24.87
2022-11-11T16:00:25.644Z,24.27
2022-11-11T16:02:55.609Z,20.37
2022-11-11T16:05:28.260Z,23.13
2022-11-11T16:08:01.510Z,24.80
2022-11-11T16:10:35.667Z,25.17
2022-11-11T16:13:20.975Z,20.43
2022-11-11T16:16:01.147Z,25.57
2022-11-11T16:18:33.427Z,18.50
2022-11-11T16:21:22.553Z,21.53
2022-11-11T16:23:51.194Z,16.83
2022-11-11T16:26:20.499Z,16.93
2022-11-11T16:28:53.896Z,18.77
2022-11-11T16:31:43.647Z,16.67
2022-11-11T16:34:27.555Z,17.03
2022-11-11T16:37:15.215Z,18.00
2022-11-11T16:39:44.772Z,18.50
2022-11-11T16:42:31.268Z,21.30
2022-11-11T16:45:01.407Z,17.07
2022-11-11T16:47:34.274Z,20.60
2022-11-11T16:50:05.937Z,20.13
2022-11-11T16:53:07.502Z,17.93
2022-11-11T16:55:45.691Z,16.77
2022-11-11T16:58:19.902Z,22.97
2022-11-11T17:00:48.169Z,25.63
2022-11-11T17:03:17.676Z,24.00
2022-11-11T17:06:08.347Z,26.10
2022-11-11T17:08:36.688Z,22.40
2022-11-11T17:11:32.343Z,18.03
2022-11-11T17:13:59.248Z,16.43
2022-11-11T17:16:26.513Z,17.83
2022-11-11T17:18:53.388Z,23.27
2022-11-11T17:21:20.320Z,25.73
2022-11-11T17:23:47.214Z,17.20
2022-11-11T17:26:14.118Z,20.53
2022-11-11T17:28:42.426Z,20.03
2022-11-11T17:31:11.986Z,22.03
2022-11-11T17:33:38.910Z,22.67
2022-11-11T17:38:47.200Z,17.83
2022-11-11T17:41:15.053Z,19.53
2022-11-11T17:43:42.046Z,19.17
2022-11-11T17:46:08.921Z,23.57
2022-11-11T17:48:35.809Z,28.83
2022-11-11T17:51:06.420Z,25.20
2022-11-11T17:53:36.787Z,23.00
2022-11-11T17:56:04.936Z,25.10
2022-11-11T17:58:34.653Z,21.73
2022-11-11T18:01:15.292Z,23.27
2022-11-11T18:03:42.872Z,22.10
2022-11-11T18:06:10.484Z,21.53
2022-11-11T18:08:38.238Z,19.20
2022-11-11T18:11:09.499Z,21.63
2022-11-11T18:13:36.492Z,22.23
2022-11-11T18:16:06.238Z,23.03
2022-11-11T18:18:33.763Z,22.40
2022-11-11T18:21:05.533Z,22.37
2022-11-11T18:23:34.871Z,22.63
2022-11-11T18:26:02.283Z,27.53
2022-11-11T18:28:38.631Z,31.13
2022-11-11T18:31:08.913Z,25.03
2022-11-11T18:33:37.307Z,25.57
2022-11-11T18:36:10.073Z,21.80
2022-11-11T18:38:37.409Z,24.13
2022-11-11T18:41:12.902Z,24.50
2022-11-11T18:43:44.446Z,21.93
2022-11-11T18:46:16.206Z,29.57
2022-11-11T18:48:44.064Z,25.77
2022-11-11T18:51:16.400Z,26.30
2022-11-11T18:53:43.554Z,25.23
2022-11-11T18:56:14.031Z,27.40
2022-11-11T18:58:40.956Z,25.43
2022-11-11T19:01:24.018Z,33.87
2022-11-11T19:04:07.354Z,27.73
2022-11-11T19:06:38.900Z,24.37
2022-11-11T19:09:09.204Z,23.30
2022-11-11T19:11:39.229Z,28.70
2022-11-11T19:14:07.152Z,23.67
2022-11-11T19:16:35.254Z,26.23
2022-11-11T19:19:02.796Z,24.67
2022-11-11T19:21:33.222Z,22.57
2022-11-11T19:24:01.149Z,28.00
2022-11-11T19:26:30.649Z,26.13
2022-11-11T19:28:59.993Z,23.90
2022-11-11T19:31:30.273Z,20.30
2022-11-11T19:33:58.807Z,25.67
2022-11-11T19:36:28.572Z,23.50
2022-11-11T19:39:00.124Z,25.27
2022-11-11T19:41:29.758Z,27.60
2022-11-11T19:43:56.961Z,28.10
2022-11-11T19:46:26.449Z,27.53
2022-11-11T19:48:56.351Z,27.50
2022-11-11T19:51:28.991Z,30.43
2022-11-11T19:53:57.372Z,31.13
2022-11-11T19:56:29.603Z,30.10
2022-11-11T19:58:57.189Z,30.93
2022-11-11T20:01:26.223Z,29.37
2022-11-11T20:03:53.414Z,32.30
2022-11-11T20:06:34.901Z,29.87
2022-11-11T20:09:08.130Z,31.33
2022-11-11T20:11:36.481Z,27.57
2022-11-11T20:14:05.317Z,34.93
2022-11-11T20:16:32.512Z,31.47
2022-11-11T20:19:00.860Z,25.47
2022-11-11T20:21:28.530Z,29.67
2022-11-11T20:23:55.854Z,30.37
2022-11-11T20:26:23.651Z,31.57
2022-11-11T20:28:58.622Z,30.73
2022-11-11T20:31:27.327Z,32.57
2022-11-11T20:33:55.384Z,31.03
2022-11-11T20:36:23.832Z,27.47
2022-11-11T20:38:51.074Z,27.50
2022-11-11T20:41:19.987Z,31.23
2022-11-11T20:43:47.744Z,29.03
2022-11-11T20:46:18.677Z,31.77
2022-11-11T20:48:49.140Z,30.77
2022-11-11T20:51:25.278Z,29.53
2022-11-11T20:53:57.295Z,29.53
2022-11-11T20:56:26.029Z,32.27
2022-11-11T20:58:54.463Z,31.83
2022-11-11T21:01:25.611Z,28.50
2022-11-11T21:03:58.595Z,27.10
2022-11-11T21:06:27.121Z,31.17
2022-11-11T21:08:54.319Z,29.43
2022-11-11T21:11:24.042Z,26.27
2022-11-11T21:13:55.537Z,31.33
2022-11-11T21:16:26.250Z,29.90
2022-11-11T21:18:54.722Z,27.93
2022-11-11T21:21:32.045Z,35.93
2022-11-11T21:24:07.002Z,29.40
2022-11-11T21:26:36.201Z,28.70
2022-11-11T21:29:04.602Z,32.50
2022-11-11T21:31:35.531Z,30.23
2022-11-11T21:34:06.301Z,26.53
2022-11-11T21:36:36.461Z,25.67
2022-11-11T21:39:05.660Z,25.67
2022-11-11T21:41:38.405Z,26.77
2022-11-11T21:44:08.430Z,22.70
2022-11-11T21:46:37.997Z,24.43
2022-11-11T21:49:05.622Z,22.57
2022-11-11T21:51:35.347Z,22.37
2022-11-11T21:54:07.017Z,21.00
2022-11-11T21:56:36.247Z,22.30
2022-11-11T21:59:06.547Z,24.47
2022-11-11T22:01:39.917Z,24.97
2022-11-11T22:04:11.474Z,26.33
2022-11-11T22:06:39.225Z,24.33
2022-11-11T22:09:07.552Z,23.80
2022-11-11T22:11:36.680Z,23.83
2022-11-11T22:14:05.796Z,24.03
2022-11-11T22:16:36.155Z,22.70
2022-11-11T22:19:12.575Z,20.27
2022-11-11T22:21:41.162Z,22.97
2022-11-11T22:24:10.769Z,20.17
2022-11-11T22:26:42.160Z,18.47
2022-11-11T22:29:11.522Z,22.07
2022-11-11T22:31:40.412Z,19.67
2022-11-11T22:34:10.461Z,17.80
2022-11-11T22:36:39.310Z,21.13
2022-11-11T22:39:08.559Z,20.87
2022-11-11T22:41:40.351Z,20.40
2022-11-11T22:44:07.618Z,19.07
2022-11-11T22:46:35.777Z,17.07
2022-11-11T22:49:06.603Z,16.60
2022-11-11T22:51:34.432Z,18.00
2022-11-11T22:54:06.302Z,16.90
2022-11-11T22:56:35.432Z,19.37
2022-11-11T22:59:05.744Z,16.53
2022-11-11T23:01:33.818Z,21.70
2022-11-11T23:04:03.398Z,20.43
2022-11-11T23:06:36.090Z,18.70
2022-11-11T23:09:05.175Z,22.17
2022-11-11T23:11:34.357Z,22.17
2022-11-11T23:14:04.521Z,18.67
2022-11-11T23:16:32.254Z,20.37
2022-11-11T23:19:00.284Z,17.73
2022-11-11T23:21:29.080Z,16.80
2022-11-11T23:23:58.010Z,13.23
2022-11-11T23:26:29.350Z,15.47
2022-11-11T23:28:56.802Z,14.40
2022-11-11T23:31:30.482Z,15.73
2022-11-11T23:34:01.170Z,19.27
2022-11-11T23:36:35.204Z,16.20
2022-11-11T23:39:02.985Z,14.37
2022-11-11T23:41:29.974Z,15.37
2022-11-11T23:43:57.003Z,13.47
2022-11-11T23:46:23.941Z,15.43
2022-11-11T23:48:50.903Z,12.07
2022-11-11T23:51:18.724Z,12.60
2022-11-11T23:53:45.620Z,10.67
2022-11-11T23:56:12.743Z,14.17
2022-11-11T23:58:39.646Z,14.00
